createdAt,value
2019-03-22T00:00:21.744Z,10.04
2019-03-22T00:01:02.346Z,10.09
2019-03-22T00:01:42.936Z,10.05
2019-03-22T00:02:23.495Z,10.07
2019-03-22T00:03:04.076Z,10.01
2019-03-22T00:03:44.645Z,9.99
2019-03-22T00:04:25.204Z,10.04
2019-03-22T00:05:05.765Z,10.05
2019-03-22T00:05:46.421Z,10.05
2019-03-22T00:06:27.038Z,10.05
2019-03-22T00:07:07.578Z,10.07
2019-03-22T00:07:48.685Z,9.99
2019-03-22T00:08:28.709Z,10.01
2019-03-22T00:09:09.263Z,9.97
2019-03-22T00:09:49.826Z,9.99
2019-03-22T00:10:30.452Z,10.01
2019-03-22T00:11:11.078Z,9.97
2019-03-22T00:11:51.744Z,10.04
2019-03-22T00:12:32.306Z,10.02
2019-03-22T00:13:12.866Z,10.02
2019-03-22T00:13:53.423Z,9.95
2019-03-22T00:14:33.986Z,10.02
2019-03-22T00:15:14.550Z,10.07
2019-03-22T00:15:55.226Z,9.97
2019-03-22T00:16:35.934Z,10.01
2019-03-22T00:17:16.504Z,9.94
2019-03-22T00:17:57.071Z,9.97
2019-03-22T00:18:37.634Z,10.05
2019-03-22T00:19:18.203Z,9.97
2019-03-22T00:19:58.770Z,9.97
2019-03-22T00:20:39.330Z,10.04
2019-03-22T00:21:19.904Z,10.05
2019-03-22T00:22:00.482Z,9.94
2019-03-22T00:22:41.039Z,10.05
2019-03-22T00:23:21.647Z,9.94
2019-03-22T00:24:02.182Z,9.97
2019-03-22T00:24:42.723Z,10.05
2019-03-22T00:25:23.284Z,10.05
2019-03-22T00:26:03.851Z,10.07
2019-03-22T00:26:44.433Z,9.99
2019-03-22T00:27:25.005Z,10.05
2019-03-22T00:28:05.643Z,9.99
2019-03-22T00:28:46.218Z,10.02
2019-03-22T00:29:26.809Z,9.95
2019-03-22T00:30:07.380Z,10.02
2019-03-22T00:30:47.942Z,9.97
2019-03-22T00:31:28.522Z,9.99
2019-03-22T00:32:09.104Z,9.99
2019-03-22T00:32:49.666Z,10.01
2019-03-22T00:33:30.226Z,10.02
2019-03-22T00:34:10.787Z,10.05
2019-03-22T00:34:51.353Z,9.99
2019-03-22T00:35:31.912Z,10.05
2019-03-22T00:36:12.463Z,9.92
2019-03-22T00:36:53.038Z,9.98
2019-03-22T00:37:33.614Z,10.02
2019-03-22T00:38:14.188Z,9.98
2019-03-22T00:38:54.768Z,10.07
2019-03-22T00:39:35.325Z,9.95
2019-03-22T00:40:15.903Z,9.99
2019-03-22T00:40:56.467Z,9.98
2019-03-22T00:41:37.026Z,10.01
2019-03-22T00:42:17.656Z,10.01
2019-03-22T00:42:58.236Z,10.02
2019-03-22T00:43:38.880Z,10.04
2019-03-22T00:44:19.451Z,10.02
2019-03-22T00:45:00.014Z,10.01
2019-03-22T00:45:40.579Z,9.99
2019-03-22T00:46:21.136Z,10.09
2019-03-22T00:47:01.692Z,10.02
2019-03-22T00:47:42.250Z,10.02
2019-03-22T00:48:24.867Z,10.01
2019-03-22T00:49:03.390Z,10.05
2019-03-22T00:49:43.963Z,10.02
2019-03-22T00:50:24.535Z,10.02
2019-03-22T00:51:05.086Z,10.01
2019-03-22T00:51:45.649Z,9.97
2019-03-22T00:52:26.207Z,10.07
2019-03-22T00:53:06.771Z,10.05
2019-03-22T00:53:47.313Z,10.02
2019-03-22T00:54:27.892Z,10.05
2019-03-22T00:55:08.452Z,10.02
2019-03-22T00:55:49.027Z,10.05
2019-03-22T00:56:29.594Z,9.99
2019-03-22T00:57:10.144Z,10.05
2019-03-22T00:57:51.171Z,10.01
2019-03-22T00:58:31.762Z,10.07
2019-03-22T00:59:12.310Z,9.95
2019-03-22T00:59:52.879Z,9.99
2019-03-22T01:00:33.435Z,10.05
2019-03-22T01:01:14.005Z,10.01
2019-03-22T01:01:54.564Z,10.04
2019-03-22T01:02:35.141Z,10.05
2019-03-22T01:03:15.690Z,9.99
2019-03-22T01:03:56.265Z,10.04
2019-03-22T01:04:36.830Z,10.02
2019-03-22T01:05:17.395Z,9.98
2019-03-22T01:05:57.970Z,10.05
2019-03-22T01:06:38.522Z,10.01
2019-03-22T01:07:19.095Z,10.05
2019-03-22T01:07:59.710Z,10.07
2019-03-22T01:08:40.272Z,10.07
2019-03-22T01:09:20.842Z,10.1
2019-03-22T01:10:01.408Z,10.07
2019-03-22T01:10:41.985Z,10.04
2019-03-22T01:11:22.552Z,10.07
2019-03-22T01:12:03.122Z,10.13
2019-03-22T01:12:43.677Z,10.13
2019-03-22T01:13:24.244Z,10.09
2019-03-22T01:14:04.812Z,10.16
2019-03-22T01:14:45.370Z,10.09
2019-03-22T01:15:25.933Z,10.15
2019-03-22T01:16:06.497Z,10.16
2019-03-22T01:16:47.064Z,10.17
2019-03-22T01:17:27.616Z,10.13
2019-03-22T01:18:08.200Z,10.17
2019-03-22T01:18:48.759Z,10.16
2019-03-22T01:19:29.328Z,10.15
2019-03-22T01:20:09.896Z,10.17
2019-03-22T01:20:50.458Z,10.15
2019-03-22T01:21:31.028Z,10.15
2019-03-22T01:22:11.587Z,10.17
2019-03-22T01:22:52.144Z,10.16
2019-03-22T01:23:32.720Z,10.16
2019-03-22T01:24:13.291Z,10.17
2019-03-22T01:24:53.847Z,10.19
2019-03-22T01:25:34.405Z,10.2
2019-03-22T01:26:14.969Z,10.13
2019-03-22T01:26:55.528Z,10.09
2019-03-22T01:27:40.572Z,10.26
2019-03-22T01:28:16.671Z,10.16
2019-03-22T01:28:57.242Z,10.28
2019-03-22T01:29:37.801Z,10.23
2019-03-22T01:30:18.384Z,10.28
2019-03-22T01:30:58.943Z,10.22
2019-03-22T01:31:39.516Z,10.22
2019-03-22T01:32:20.091Z,10.23
2019-03-22T01:33:00.654Z,10.23
2019-03-22T01:33:41.222Z,10.2
2019-03-22T01:34:21.858Z,10.22
2019-03-22T01:35:02.421Z,10.3
2019-03-22T01:35:42.978Z,10.28
2019-03-22T01:36:23.599Z,10.25
2019-03-22T01:37:04.159Z,10.15
2019-03-22T01:37:44.703Z,10.25
2019-03-22T01:38:25.284Z,10.16
2019-03-22T01:39:05.864Z,10.23
2019-03-22T01:39:46.432Z,10.25
2019-03-22T01:40:27.006Z,10.2
2019-03-22T01:41:07.560Z,10.22
2019-03-22T01:41:48.147Z,10.17
2019-03-22T01:42:28.685Z,10.2
2019-03-22T01:43:09.238Z,10.28
2019-03-22T01:43:49.789Z,10.22
2019-03-22T01:44:30.343Z,10.22
2019-03-22T01:45:10.912Z,10.23
2019-03-22T01:45:51.485Z,10.26
2019-03-22T01:46:32.054Z,10.22
2019-03-22T01:47:12.616Z,10.23
2019-03-22T01:47:53.195Z,10.22
2019-03-22T01:48:33.751Z,10.19
2019-03-22T01:49:14.363Z,10.22
2019-03-22T01:49:54.920Z,10.2
2019-03-22T01:50:35.509Z,10.23
2019-03-22T01:51:16.071Z,10.25
2019-03-22T01:51:56.637Z,10.22
2019-03-22T01:52:37.185Z,10.25
2019-03-22T01:53:17.740Z,10.3
2019-03-22T01:53:58.287Z,10.2
2019-03-22T01:54:38.849Z,10.19
2019-03-22T01:55:19.416Z,10.23
2019-03-22T01:55:59.988Z,10.26
2019-03-22T01:56:40.545Z,10.26
2019-03-22T01:57:21.116Z,10.22
2019-03-22T01:58:01.681Z,10.26
2019-03-22T01:58:42.261Z,10.2
2019-03-22T01:59:22.834Z,10.28
2019-03-22T02:00:03.427Z,10.2
2019-03-22T02:00:43.983Z,10.23
2019-03-22T02:01:24.544Z,10.31
2019-03-22T02:02:05.096Z,10.35
2019-03-22T02:02:45.644Z,10.22
2019-03-22T02:03:26.210Z,10.31
2019-03-22T02:04:06.779Z,10.28
2019-03-22T02:04:47.354Z,10.22
2019-03-22T02:05:27.912Z,10.3
2019-03-22T02:06:08.490Z,10.3
2019-03-22T02:06:49.049Z,10.37
2019-03-22T02:07:29.619Z,10.31
2019-03-22T02:08:10.191Z,10.33
2019-03-22T02:08:50.744Z,10.28
2019-03-22T02:09:31.306Z,10.23
2019-03-22T02:10:11.859Z,10.35
2019-03-22T02:10:52.470Z,10.35
2019-03-22T02:11:33.040Z,10.33
2019-03-22T02:12:13.597Z,10.28
2019-03-22T02:12:54.155Z,10.34
2019-03-22T02:13:34.708Z,10.23
2019-03-22T02:14:15.282Z,10.35
2019-03-22T02:14:55.873Z,10.26
2019-03-22T02:15:36.426Z,10.28
2019-03-22T02:16:17.014Z,10.23
2019-03-22T02:16:57.616Z,10.37
2019-03-22T02:17:38.148Z,10.25
2019-03-22T02:18:18.695Z,10.34
2019-03-22T02:18:59.293Z,10.28
2019-03-22T02:19:39.869Z,10.25
2019-03-22T02:20:20.423Z,10.25
2019-03-22T02:21:00.966Z,10.3
2019-03-22T02:21:41.529Z,10.33
2019-03-22T02:22:22.112Z,10.31
2019-03-22T02:23:02.680Z,10.28
2019-03-22T02:23:43.247Z,10.38
2019-03-22T02:24:23.805Z,10.37
2019-03-22T02:25:04.376Z,10.33
2019-03-22T02:25:44.924Z,10.31
2019-03-22T02:26:25.571Z,10.31
2019-03-22T02:27:06.084Z,10.34
2019-03-22T02:27:46.645Z,10.26
2019-03-22T02:28:27.208Z,10.37
2019-03-22T02:29:07.766Z,10.3
2019-03-22T02:29:48.332Z,10.34
2019-03-22T02:30:28.898Z,10.37
2019-03-22T02:31:09.468Z,10.3
2019-03-22T02:31:50.072Z,10.37
2019-03-22T02:32:30.642Z,10.31
2019-03-22T02:33:11.180Z,10.42
2019-03-22T02:33:51.747Z,10.3
2019-03-22T02:34:32.476Z,10.35
2019-03-22T02:35:27.309Z,10.33
2019-03-22T02:35:53.491Z,10.4
2019-03-22T02:36:34.058Z,10.35
2019-03-22T02:37:14.622Z,10.42
2019-03-22T02:37:55.196Z,10.49
2019-03-22T02:38:35.765Z,10.3
2019-03-22T02:39:16.380Z,10.4
2019-03-22T02:39:56.887Z,10.41
2019-03-22T02:40:37.456Z,10.44
2019-03-22T02:41:18.047Z,10.38
2019-03-22T02:41:58.567Z,10.46
2019-03-22T02:42:39.130Z,10.44
2019-03-22T02:43:19.701Z,10.42
2019-03-22T02:44:00.331Z,10.41
2019-03-22T02:44:40.849Z,10.42
2019-03-22T02:45:21.454Z,10.41
2019-03-22T02:46:01.995Z,10.38
2019-03-22T02:46:42.559Z,10.42
2019-03-22T02:47:23.146Z,10.42
2019-03-22T02:48:03.738Z,10.49
2019-03-22T02:48:44.286Z,10.41
2019-03-22T02:49:24.851Z,10.49
2019-03-22T02:50:17.075Z,10.4
2019-03-22T02:50:45.968Z,10.41
2019-03-22T02:51:26.593Z,10.4
2019-03-22T02:52:07.149Z,10.42
2019-03-22T02:52:47.738Z,10.46
2019-03-22T02:53:28.283Z,10.37
2019-03-22T02:54:08.846Z,10.41
2019-03-22T02:54:49.425Z,10.35
2019-03-22T02:55:29.979Z,10.44
2019-03-22T02:56:10.726Z,10.46
2019-03-22T02:56:51.099Z,10.38
2019-03-22T02:57:31.654Z,10.38
2019-03-22T02:58:20.168Z,10.44
2019-03-22T02:58:52.786Z,10.51
2019-03-22T02:59:33.346Z,10.48
2019-03-22T03:00:13.923Z,10.35
2019-03-22T03:00:54.491Z,10.53
2019-03-22T03:01:35.083Z,10.51
2019-03-22T03:02:15.631Z,10.44
2019-03-22T03:02:56.200Z,10.37
2019-03-22T03:03:36.778Z,10.42
2019-03-22T03:04:17.357Z,10.44
2019-03-22T03:04:57.920Z,10.41
2019-03-22T03:05:38.492Z,10.37
2019-03-22T03:06:19.057Z,10.48
2019-03-22T03:06:59.616Z,10.46
2019-03-22T03:07:40.170Z,10.44
2019-03-22T03:08:20.738Z,10.54
2019-03-22T03:09:01.301Z,10.49
2019-03-22T03:09:41.862Z,10.42
2019-03-22T03:10:22.419Z,10.59
2019-03-22T03:11:02.982Z,10.56
2019-03-22T03:11:43.558Z,10.6
2019-03-22T03:12:24.127Z,10.61
2019-03-22T03:13:04.692Z,10.63
2019-03-22T03:13:45.247Z,10.61
2019-03-22T03:14:25.815Z,10.54
2019-03-22T03:15:06.369Z,10.63
2019-03-22T03:15:46.927Z,10.56
2019-03-22T03:16:27.485Z,10.49
2019-03-22T03:17:08.038Z,10.6
2019-03-22T03:17:48.622Z,10.63
2019-03-22T03:18:29.184Z,10.53
2019-03-22T03:19:09.728Z,10.53
2019-03-22T03:19:50.296Z,10.63
2019-03-22T03:20:30.922Z,10.61
2019-03-22T03:21:11.413Z,10.64
2019-03-22T03:21:51.977Z,10.6
2019-03-22T03:22:32.527Z,10.56
2019-03-22T03:23:13.081Z,10.61
2019-03-22T03:23:53.637Z,10.61
2019-03-22T03:24:34.194Z,10.64
2019-03-22T03:25:14.766Z,10.6
2019-03-22T03:25:55.329Z,10.61
2019-03-22T03:26:35.886Z,10.63
2019-03-22T03:27:16.441Z,10.6
2019-03-22T03:27:57.006Z,10.67
2019-03-22T03:28:37.771Z,10.6
2019-03-22T03:29:18.146Z,10.57
2019-03-22T03:29:58.709Z,10.64
2019-03-22T03:30:39.271Z,10.61
2019-03-22T03:31:19.912Z,10.63
2019-03-22T03:32:00.473Z,10.6
2019-03-22T03:32:40.979Z,10.64
2019-03-22T03:33:21.558Z,10.63
2019-03-22T03:34:02.135Z,10.69
2019-03-22T03:34:42.717Z,10.61
2019-03-22T03:35:23.277Z,10.61
2019-03-22T03:36:03.854Z,10.67
2019-03-22T03:36:44.413Z,10.75
2019-03-22T03:37:24.978Z,10.71
2019-03-22T03:38:05.538Z,10.69
2019-03-22T03:38:46.088Z,10.68
2019-03-22T03:39:26.666Z,10.69
2019-03-22T03:40:07.209Z,10.69
2019-03-22T03:40:47.779Z,10.67
2019-03-22T03:41:28.335Z,10.76
2019-03-22T03:42:08.904Z,10.69
2019-03-22T03:42:49.511Z,10.69
2019-03-22T03:43:30.045Z,10.61
2019-03-22T03:44:10.612Z,10.63
2019-03-22T03:44:51.173Z,10.71
2019-03-22T03:45:31.743Z,10.59
2019-03-22T03:46:12.306Z,10.59
2019-03-22T03:46:52.863Z,10.57
2019-03-22T03:47:33.448Z,10.6
2019-03-22T03:48:14.035Z,10.6
2019-03-22T03:48:54.579Z,10.6
2019-03-22T03:49:35.142Z,10.57
2019-03-22T03:50:15.704Z,10.6
2019-03-22T03:50:56.286Z,10.63
2019-03-22T03:51:36.842Z,10.6
2019-03-22T03:52:17.452Z,10.59
2019-03-22T03:52:57.990Z,10.59
2019-03-22T03:53:38.560Z,10.6
2019-03-22T03:54:19.137Z,10.63
2019-03-22T03:54:59.686Z,10.68
2019-03-22T03:55:40.243Z,10.74
2019-03-22T03:56:20.802Z,10.76
2019-03-22T03:57:01.366Z,10.69
2019-03-22T03:57:41.939Z,10.74
2019-03-22T03:58:22.500Z,10.76
2019-03-22T03:59:03.217Z,10.78
2019-03-22T03:59:43.784Z,10.82
2019-03-22T04:00:24.358Z,10.81
2019-03-22T04:01:04.936Z,10.75
2019-03-22T04:01:45.490Z,10.78
2019-03-22T04:02:26.059Z,10.76
2019-03-22T04:03:06.651Z,10.81
2019-03-22T04:03:47.253Z,10.75
2019-03-22T04:04:27.825Z,10.71
2019-03-22T04:05:08.406Z,10.72
2019-03-22T04:05:48.968Z,10.72
2019-03-22T04:06:29.526Z,10.76
2019-03-22T04:07:10.105Z,10.81
2019-03-22T04:07:50.652Z,10.79
2019-03-22T04:08:31.202Z,10.79
2019-03-22T04:09:11.755Z,10.79
2019-03-22T04:09:52.311Z,10.78
2019-03-22T04:10:32.873Z,10.79
2019-03-22T04:11:13.437Z,10.79
2019-03-22T04:11:54.027Z,10.79
2019-03-22T04:12:34.598Z,10.81
2019-03-22T04:13:15.170Z,10.78
2019-03-22T04:13:55.723Z,10.78
2019-03-22T04:14:36.299Z,10.72
2019-03-22T04:15:16.860Z,10.74
2019-03-22T04:15:57.483Z,10.81
2019-03-22T04:16:38.002Z,10.75
2019-03-22T04:17:18.574Z,10.74
2019-03-22T04:17:59.118Z,10.79
2019-03-22T04:18:39.688Z,10.79
2019-03-22T04:19:20.257Z,10.79
2019-03-22T04:20:00.813Z,10.79
2019-03-22T04:20:41.423Z,10.74
2019-03-22T04:21:21.978Z,10.76
2019-03-22T04:22:02.531Z,10.75
2019-03-22T04:22:43.079Z,10.81
2019-03-22T04:23:23.645Z,10.86
2019-03-22T04:24:04.182Z,10.9
2019-03-22T04:24:44.729Z,10.84
2019-03-22T04:25:25.332Z,10.89
2019-03-22T04:26:05.884Z,10.87
2019-03-22T04:26:46.449Z,10.87
2019-03-22T04:27:27.021Z,10.86
2019-03-22T04:28:07.585Z,10.86
2019-03-22T04:28:48.133Z,10.89
2019-03-22T04:29:28.779Z,10.87
2019-03-22T04:30:09.584Z,10.87
2019-03-22T04:30:50.142Z,10.92
2019-03-22T04:31:30.707Z,10.89
2019-03-22T04:32:11.274Z,10.89
2019-03-22T04:32:51.839Z,10.93
2019-03-22T04:33:32.394Z,10.84
2019-03-22T04:34:12.966Z,10.87
2019-03-22T04:34:53.520Z,10.84
2019-03-22T04:35:34.117Z,10.87
2019-03-22T04:36:14.664Z,10.89
2019-03-22T04:36:55.232Z,10.82
2019-03-22T04:37:35.789Z,10.86
2019-03-22T04:38:16.461Z,10.87
2019-03-22T04:38:57.038Z,10.82
2019-03-22T04:39:37.613Z,10.84
2019-03-22T04:40:18.169Z,10.82
2019-03-22T04:40:58.727Z,10.9
2019-03-22T04:41:39.316Z,10.84
2019-03-22T04:42:19.886Z,10.89
2019-03-22T04:43:00.464Z,10.87
2019-03-22T04:43:41.014Z,10.86
2019-03-22T04:44:21.576Z,10.87
2019-03-22T04:45:02.134Z,10.9
2019-03-22T04:45:42.718Z,10.87
2019-03-22T04:46:23.303Z,10.87
2019-03-22T04:47:03.884Z,10.89
2019-03-22T04:47:46.016Z,10.92
2019-03-22T04:48:25.128Z,10.86
2019-03-22T04:49:05.718Z,10.9
2019-03-22T04:49:46.275Z,10.86
2019-03-22T04:50:26.840Z,10.99
2019-03-22T04:51:07.395Z,10.9
2019-03-22T04:51:47.969Z,10.89
2019-03-22T04:52:28.531Z,10.92
2019-03-22T04:53:09.094Z,10.84
2019-03-22T04:53:49.657Z,10.92
2019-03-22T04:54:30.228Z,10.87
2019-03-22T04:55:10.784Z,10.86
2019-03-22T04:55:51.367Z,10.84
2019-03-22T04:56:31.923Z,10.84
2019-03-22T04:57:12.512Z,10.87
2019-03-22T04:57:53.078Z,10.92
2019-03-22T04:58:33.641Z,10.82
2019-03-22T04:59:19.189Z,10.92
2019-03-22T04:59:54.761Z,10.94
2019-03-22T05:00:35.324Z,10.93
2019-03-22T05:01:15.883Z,10.93
2019-03-22T05:01:56.451Z,10.93
2019-03-22T05:02:37.036Z,10.93
2019-03-22T05:03:17.603Z,10.96
2019-03-22T05:03:59.118Z,10.94
2019-03-22T05:04:38.909Z,10.9
2019-03-22T05:05:19.474Z,10.87
2019-03-22T05:06:00.063Z,10.9
2019-03-22T05:06:40.647Z,10.87
2019-03-22T05:07:21.210Z,10.87
2019-03-22T05:08:01.793Z,10.94
2019-03-22T05:08:42.386Z,10.9
2019-03-22T05:09:22.961Z,11.04
2019-03-22T05:10:03.519Z,10.92
2019-03-22T05:10:44.104Z,11
2019-03-22T05:11:24.657Z,10.99
2019-03-22T05:12:05.212Z,10.9
2019-03-22T05:12:45.765Z,11.02
2019-03-22T05:13:26.336Z,10.93
2019-03-22T05:14:06.898Z,10.87
2019-03-22T05:14:47.465Z,10.86
2019-03-22T05:15:28.023Z,10.9
2019-03-22T05:16:08.591Z,10.9
2019-03-22T05:16:49.185Z,10.9
2019-03-22T05:17:29.769Z,10.9
2019-03-22T05:18:10.324Z,10.99
2019-03-22T05:18:50.883Z,10.99
2019-03-22T05:19:31.465Z,10.93
2019-03-22T05:20:12.046Z,10.84
2019-03-22T05:20:52.590Z,10.9
2019-03-22T05:21:33.165Z,10.99
2019-03-22T05:22:13.707Z,10.99
2019-03-22T05:22:54.273Z,10.94
2019-03-22T05:23:34.855Z,10.97
2019-03-22T05:24:17.985Z,11.05
2019-03-22T05:24:55.978Z,10.92
2019-03-22T05:25:36.542Z,10.9
2019-03-22T05:26:17.111Z,10.87
2019-03-22T05:26:57.667Z,10.96
2019-03-22T05:27:38.239Z,10.96
2019-03-22T05:28:18.804Z,10.96
2019-03-22T05:28:59.375Z,10.94
2019-03-22T05:29:39.924Z,10.9
2019-03-22T05:30:20.500Z,11.04
2019-03-22T05:31:01.085Z,10.93
2019-03-22T05:31:41.653Z,10.97
2019-03-22T05:32:22.252Z,10.9
2019-03-22T05:33:02.840Z,10.99
2019-03-22T05:33:43.417Z,10.92
2019-03-22T05:34:23.959Z,10.93
2019-03-22T05:35:07.154Z,10.87
2019-03-22T05:35:45.099Z,10.96
2019-03-22T05:36:25.676Z,10.9
2019-03-22T05:37:06.262Z,10.9
2019-03-22T05:37:46.828Z,10.9
2019-03-22T05:38:27.409Z,10.93
2019-03-22T05:39:07.967Z,10.9
2019-03-22T05:39:48.547Z,10.9
2019-03-22T05:40:29.113Z,11.02
2019-03-22T05:41:09.690Z,10.89
2019-03-22T05:41:50.248Z,10.99
2019-03-22T05:42:30.817Z,10.97
2019-03-22T05:43:11.374Z,10.92
2019-03-22T05:43:51.922Z,10.93
2019-03-22T05:44:32.488Z,10.94
2019-03-22T05:45:13.055Z,11.04
2019-03-22T05:45:53.627Z,10.9
2019-03-22T05:46:34.175Z,11.07
2019-03-22T05:47:14.725Z,10.97
2019-03-22T05:47:56.356Z,10.99
2019-03-22T05:48:36.908Z,10.9
2019-03-22T05:49:17.500Z,10.94
2019-03-22T05:49:58.055Z,10.99
2019-03-22T05:50:38.637Z,10.99
2019-03-22T05:51:19.193Z,11
2019-03-22T05:51:59.794Z,11.02
2019-03-22T05:52:40.308Z,11.02
2019-03-22T05:53:20.856Z,11.05
2019-03-22T05:54:01.427Z,11.02
2019-03-22T05:54:42.013Z,10.94
2019-03-22T05:55:22.588Z,11
2019-03-22T05:56:03.148Z,10.9
2019-03-22T05:56:43.708Z,11
2019-03-22T05:57:24.273Z,10.94
2019-03-22T05:58:04.822Z,10.96
2019-03-22T05:58:45.393Z,10.9
2019-03-22T05:59:25.977Z,10.92
2019-03-22T06:00:06.550Z,11.04
2019-03-22T06:00:47.107Z,10.96
2019-03-22T06:01:27.879Z,10.94
2019-03-22T06:02:08.723Z,10.92
2019-03-22T06:02:49.314Z,10.93
2019-03-22T06:03:29.871Z,10.9
2019-03-22T06:04:10.427Z,11
2019-03-22T06:04:51.019Z,10.93
2019-03-22T06:05:31.597Z,10.92
2019-03-22T06:06:12.226Z,10.92
2019-03-22T06:06:52.790Z,11.02
2019-03-22T06:07:33.341Z,10.89
2019-03-22T06:08:13.911Z,11
2019-03-22T06:08:54.475Z,10.9
2019-03-22T06:09:35.037Z,10.96
2019-03-22T06:10:15.591Z,10.94
2019-03-22T06:10:56.161Z,10.92
2019-03-22T06:11:36.784Z,11.02
2019-03-22T06:12:17.425Z,10.9
2019-03-22T06:12:58.026Z,10.89
2019-03-22T06:13:38.597Z,10.99
2019-03-22T06:14:19.160Z,10.92
2019-03-22T06:14:59.806Z,10.93
2019-03-22T06:15:40.644Z,10.92
2019-03-22T06:16:21.334Z,10.92
2019-03-22T06:17:02.079Z,10.94
2019-03-22T06:17:51.119Z,10.94
2019-03-22T06:18:23.210Z,10.92
2019-03-22T06:19:03.771Z,10.97
2019-03-22T06:19:44.324Z,10.94
2019-03-22T06:20:24.909Z,10.96
2019-03-22T06:21:05.470Z,10.93
2019-03-22T06:21:46.036Z,10.94
2019-03-22T06:22:26.585Z,10.9
2019-03-22T06:23:07.188Z,10.93
2019-03-22T06:23:47.745Z,10.92
2019-03-22T06:24:28.480Z,10.96
2019-03-22T06:25:09.046Z,11.02
2019-03-22T06:25:49.611Z,11.11
2019-03-22T06:26:30.181Z,11.22
2019-03-22T06:27:10.764Z,11.47
2019-03-22T06:27:51.346Z,11.66
2019-03-22T06:28:31.943Z,11.68
2019-03-22T06:29:12.543Z,11.8
2019-03-22T06:29:54.323Z,12.02
2019-03-22T06:30:33.685Z,12.24
2019-03-22T06:31:14.248Z,12.35
2019-03-22T06:31:54.806Z,12.43
2019-03-22T06:32:35.379Z,12.54
2019-03-22T06:33:15.945Z,12.6
2019-03-22T06:33:56.523Z,12.76
2019-03-22T06:34:37.087Z,12.83
2019-03-22T06:35:17.646Z,12.9
2019-03-22T06:35:58.238Z,12.98
2019-03-22T06:36:38.799Z,13.11
2019-03-22T06:37:19.353Z,13.22
2019-03-22T06:37:59.919Z,13.3
2019-03-22T06:38:40.475Z,13.31
2019-03-22T06:39:21.054Z,13.38
2019-03-22T06:40:01.603Z,13.41
2019-03-22T06:40:42.152Z,13.49
2019-03-22T06:41:22.716Z,13.52
2019-03-22T06:42:03.335Z,13.53
2019-03-22T06:42:43.875Z,13.53
2019-03-22T06:43:24.451Z,13.6
2019-03-22T06:44:05.018Z,13.65
2019-03-22T06:44:45.607Z,13.65
2019-03-22T06:45:26.152Z,13.72
2019-03-22T06:46:06.777Z,13.71
2019-03-22T06:46:47.335Z,13.75
2019-03-22T06:47:27.912Z,13.83
2019-03-22T06:48:08.471Z,13.79
2019-03-22T06:48:49.042Z,13.83
2019-03-22T06:49:29.596Z,13.87
2019-03-22T06:50:10.178Z,13.86
2019-03-22T06:50:50.886Z,13.83
2019-03-22T06:51:31.454Z,13.93
2019-03-22T06:52:12.042Z,13.95
2019-03-22T06:52:52.589Z,13.87
2019-03-22T06:53:33.152Z,13.89
2019-03-22T06:54:13.728Z,13.87
2019-03-22T06:54:54.354Z,13.85
2019-03-22T06:55:34.902Z,13.9
2019-03-22T06:56:15.468Z,13.9
2019-03-22T06:56:56.035Z,13.92
2019-03-22T06:57:36.618Z,13.92
2019-03-22T06:58:17.193Z,14.07
2019-03-22T06:58:57.775Z,14.03
2019-03-22T06:59:38.401Z,13.96
2019-03-22T07:00:18.964Z,14.03
2019-03-22T07:00:59.522Z,14.04
2019-03-22T07:01:40.092Z,14.03
2019-03-22T07:02:20.647Z,13.99
2019-03-22T07:03:01.201Z,13.99
2019-03-22T07:03:41.785Z,13.99
2019-03-22T07:04:22.412Z,14.03
2019-03-22T07:05:03.002Z,14.07
2019-03-22T07:05:43.566Z,14
2019-03-22T07:06:24.139Z,13.99
2019-03-22T07:07:04.697Z,13.97
2019-03-22T07:07:45.241Z,14.11
2019-03-22T07:08:25.960Z,13.96
2019-03-22T07:09:06.525Z,14.05
2019-03-22T07:09:47.106Z,14.08
2019-03-22T07:10:27.688Z,14.08
2019-03-22T07:11:08.257Z,14.1
2019-03-22T07:11:48.842Z,14.17
2019-03-22T07:12:29.403Z,14.1
2019-03-22T07:13:09.976Z,14.2
2019-03-22T07:13:50.542Z,14.15
2019-03-22T07:14:31.097Z,14.17
2019-03-22T07:15:11.796Z,14.05
2019-03-22T07:15:52.324Z,14.15
2019-03-22T07:16:32.887Z,14.08
2019-03-22T07:17:13.438Z,14.05
2019-03-22T07:17:54.041Z,14.17
2019-03-22T07:18:34.606Z,14.1
2019-03-22T07:19:15.169Z,14.12
2019-03-22T07:19:55.747Z,14.08
2019-03-22T07:20:36.313Z,14.04
2019-03-22T07:21:16.997Z,14.11
2019-03-22T07:21:57.578Z,13.9
2019-03-22T07:22:38.143Z,13.92
2019-03-22T07:23:18.761Z,13.95
2019-03-22T07:23:59.363Z,13.96
2019-03-22T07:24:39.919Z,14.03
2019-03-22T07:25:20.515Z,13.89
2019-03-22T07:26:01.075Z,13.95
2019-03-22T07:26:41.747Z,13.99
2019-03-22T07:27:22.794Z,14.04
2019-03-22T07:28:03.372Z,14.08
2019-03-22T07:28:43.945Z,13.87
2019-03-22T07:29:24.507Z,13.89
2019-03-22T07:30:05.086Z,13.72
2019-03-22T07:30:45.651Z,13.59
2019-03-22T07:31:26.299Z,13.47
2019-03-22T07:32:06.800Z,13.38
2019-03-22T07:32:47.354Z,13.39
2019-03-22T07:33:27.943Z,13.3
2019-03-22T07:34:08.544Z,13.11
2019-03-22T07:34:49.122Z,13.03
2019-03-22T07:35:29.806Z,12.94
2019-03-22T07:36:10.379Z,12.83
2019-03-22T07:36:50.953Z,12.7
2019-03-22T07:37:31.512Z,12.68
2019-03-22T07:38:12.083Z,12.65
2019-03-22T07:38:52.636Z,12.54
2019-03-22T07:39:33.199Z,12.46
2019-03-22T07:40:13.767Z,12.47
2019-03-22T07:40:54.335Z,12.37
2019-03-22T07:41:35.036Z,12.27
2019-03-22T07:42:17.551Z,12.25
2019-03-22T07:42:56.148Z,12.28
2019-03-22T07:43:36.708Z,12.2
2019-03-22T07:44:17.272Z,12.21
2019-03-22T07:44:57.837Z,12.17
2019-03-22T07:45:38.472Z,12.12
2019-03-22T07:46:19.258Z,12.13
2019-03-22T07:46:59.834Z,12.02
2019-03-22T07:47:40.430Z,11.99
2019-03-22T07:48:21.004Z,12.02
2019-03-22T07:49:01.560Z,11.91
2019-03-22T07:49:42.163Z,11.88
2019-03-22T07:50:22.729Z,11.94
2019-03-22T07:51:03.293Z,11.84
2019-03-22T07:51:43.854Z,11.8
2019-03-22T07:52:24.412Z,11.83
2019-03-22T07:53:04.963Z,11.75
2019-03-22T07:53:45.613Z,11.83
2019-03-22T07:54:26.132Z,11.8
2019-03-22T07:55:06.839Z,11.75
2019-03-22T07:55:47.391Z,11.68
2019-03-22T07:56:27.972Z,11.69
2019-03-22T07:57:08.571Z,11.72
2019-03-22T07:57:49.171Z,11.72
2019-03-22T07:58:29.703Z,11.75
2019-03-22T07:59:10.321Z,11.69
2019-03-22T07:59:51.026Z,11.7
2019-03-22T08:00:31.653Z,11.66
2019-03-22T08:01:12.270Z,11.63
2019-03-22T08:01:52.837Z,11.69
2019-03-22T08:02:33.415Z,11.65
2019-03-22T08:03:14.043Z,11.68
2019-03-22T08:03:54.623Z,11.66
2019-03-22T08:04:35.176Z,11.65
2019-03-22T08:05:15.747Z,11.62
2019-03-22T08:05:56.313Z,11.63
2019-03-22T08:06:36.880Z,11.55
2019-03-22T08:07:17.436Z,11.59
2019-03-22T08:07:58.003Z,11.65
2019-03-22T08:08:38.593Z,11.57
2019-03-22T08:09:19.398Z,11.68
2019-03-22T08:10:00.664Z,11.54
2019-03-22T08:10:41.204Z,11.6
2019-03-22T08:11:24.639Z,11.6
2019-03-22T08:12:02.368Z,11.59
2019-03-22T08:12:42.935Z,11.62
2019-03-22T08:13:23.576Z,11.6
2019-03-22T08:14:04.212Z,11.62
2019-03-22T08:14:44.850Z,11.62
2019-03-22T08:15:25.436Z,11.65
2019-03-22T08:16:06.000Z,11.65
2019-03-22T08:16:46.576Z,11.65
2019-03-22T08:17:27.098Z,11.57
2019-03-22T08:18:07.678Z,11.55
2019-03-22T08:18:48.251Z,11.59
2019-03-22T08:19:28.938Z,11.6
2019-03-22T08:20:09.765Z,11.44
2019-03-22T08:20:50.324Z,11.52
2019-03-22T08:21:30.972Z,11.48
2019-03-22T08:22:11.551Z,11.45
2019-03-22T08:22:52.425Z,11.45
2019-03-22T08:23:33.112Z,11.36
2019-03-22T08:24:13.684Z,11.47
2019-03-22T08:24:54.256Z,11.52
2019-03-22T08:25:34.858Z,11.47
2019-03-22T08:26:15.464Z,11.52
2019-03-22T08:26:56.038Z,11.51
2019-03-22T08:27:36.593Z,11.52
2019-03-22T08:28:17.255Z,11.51
2019-03-22T08:28:58.134Z,11.51
2019-03-22T08:29:38.710Z,11.5
2019-03-22T08:30:19.255Z,11.52
2019-03-22T08:30:59.834Z,11.47
2019-03-22T08:31:40.410Z,11.47
2019-03-22T08:32:20.988Z,11.44
2019-03-22T08:33:01.545Z,11.48
2019-03-22T08:33:42.178Z,11.41
2019-03-22T08:34:22.760Z,11.36
2019-03-22T08:35:03.337Z,11.36
2019-03-22T08:35:44.164Z,11.36
2019-03-22T08:36:25.055Z,11.41
2019-03-22T08:37:05.971Z,11.41
2019-03-22T08:37:52.266Z,11.37
2019-03-22T08:38:27.323Z,11.43
2019-03-22T08:39:09.924Z,11.35
2019-03-22T08:39:49.738Z,11.36
2019-03-22T08:40:30.277Z,11.33
2019-03-22T08:41:11.830Z,11.4
2019-03-22T08:41:52.396Z,11.36
2019-03-22T08:42:32.961Z,11.36
2019-03-22T08:43:13.544Z,11.35
2019-03-22T08:43:54.100Z,11.32
2019-03-22T08:44:34.695Z,11.4
2019-03-22T08:45:15.276Z,11.36
2019-03-22T08:45:55.821Z,11.4